createdAt,value
2022-07-25T00:01:14.827Z,68.8
2022-07-25T00:06:41.164Z,68.8
2022-07-25T00:11:27.919Z,68.9
2022-07-25T00:16:54.365Z,69.0
2022-07-25T00:22:56.963Z,69.0
2022-07-25T00:26:47.209Z,69.2
2022-07-25T00:31:53.593Z,69.4
2022-07-25T00:36:59.997Z,69.1
2022-07-25T00:42:26.436Z,69.2
2022-07-25T00:47:12.775Z,69.3
2022-07-25T00:55:07.513Z,69.4
2022-07-25T00:57:25.577Z,69.5
2022-07-25T01:02:32.032Z,69.6
2022-07-25T01:07:38.386Z,69.7
2022-07-25T01:12:44.762Z,69.7
2022-07-25T01:18:11.234Z,69.6
2022-07-25T01:26:05.967Z,69.6
2022-07-25T01:28:03.986Z,69.7
2022-07-25T01:33:34.419Z,69.6
2022-07-25T01:38:16.768Z,69.5
2022-07-25T01:44:35.321Z,69.7
2022-07-25T01:49:13.801Z,69.8
2022-07-25T01:53:39.534Z,69.8
2022-07-25T01:58:45.960Z,69.8
2022-07-25T02:04:36.544Z,70.0
2022-07-25T02:14:30.297Z,70.3
2022-07-25T02:29:45.446Z,70.4
2022-07-25T02:39:38.299Z,70.4
2022-07-25T02:44:44.750Z,70.5
2022-07-25T02:50:15.493Z,70.4
2022-07-25T02:54:57.868Z,70.5
2022-07-25T03:00:04.221Z,70.5
2022-07-25T03:05:30.639Z,70.7
2022-07-25T03:10:41.025Z,70.6
2022-07-25T03:15:47.579Z,70.7
2022-07-25T03:20:49.964Z,70.6
2022-07-25T03:26:48.449Z,70.8
2022-07-25T03:30:42.720Z,70.8
2022-07-25T03:35:49.090Z,70.8
2022-07-25T03:40:55.481Z,71.0
2022-07-25T03:46:26.034Z,70.8
2022-07-25T03:51:08.266Z,71.4
2022-07-25T03:56:14.650Z,70.8
2022-07-25T04:02:33.293Z,70.7
2022-07-25T04:06:27.437Z,70.7
2022-07-25T04:11:33.813Z,70.6
2022-07-25T04:26:53.023Z,70.3
2022-07-25T04:42:12.155Z,70.3
2022-07-25T04:47:18.536Z,70.2
2022-07-25T04:52:24.919Z,70.3
2022-07-25T04:57:31.312Z,70.3
2022-07-25T05:03:21.758Z,70.6
2022-07-25T05:07:44.050Z,70.7
2022-07-25T05:12:50.416Z,70.7
2022-07-25T05:17:46.799Z,70.8
2022-07-25T05:23:03.258Z,71.0
2022-07-25T05:27:59.736Z,71.2
2022-07-25T05:33:16.142Z,71.3
2022-07-25T05:38:36.560Z,71.5
2022-07-25T05:43:48.968Z,71.5
2022-07-25T05:48:49.413Z,71.5
2022-07-25T05:53:31.689Z,71.9
2022-07-25T05:58:48.066Z,72.4
2022-07-25T06:04:14.484Z,72.8
2022-07-25T06:09:24.868Z,72.9
2022-07-25T06:14:07.514Z,73.3
2022-07-25T06:19:13.634Z,73.3
2022-07-25T06:24:20.008Z,73.1
2022-07-25T06:29:26.406Z,73.7
2022-07-25T06:34:32.839Z,73.3
2022-07-25T06:39:29.153Z,73.4
2022-07-25T06:44:45.731Z,73.7
2022-07-25T06:54:57.469Z,73.1
2022-07-25T06:59:54.828Z,72.8
2022-07-25T07:12:23.042Z,72.2
2022-07-25T07:25:36.921Z,70.9
2022-07-25T07:31:19.334Z,70.5
2022-07-25T07:35:57.282Z,69.7
2022-07-25T07:41:24.612Z,68.8
2022-07-25T07:46:11.025Z,68.7
2022-07-25T07:51:21.350Z,68.5
2022-07-25T07:57:24.420Z,68.2
2022-07-25T08:08:22.285Z,68.3
2022-07-25T08:17:31.069Z,66.0
2022-07-25T08:23:16.719Z,65.2
2022-07-25T08:29:04.911Z,64.1
2022-07-25T08:33:30.573Z,64.0
2022-07-25T08:39:01.031Z,64.3
2022-07-25T08:49:17.913Z,64.1
2022-07-25T09:00:06.259Z,63.8
2022-07-25T09:04:12.594Z,62.8
2022-07-25T09:14:29.398Z,60.4
2022-07-25T09:19:31.798Z,59.0
2022-07-25T09:25:22.265Z,57.8
2022-07-25T09:29:44.554Z,57.1
2022-07-25T09:34:51.003Z,56.7
2022-07-25T09:39:57.922Z,56.5
2022-07-25T09:55:37.082Z,57.2
2022-07-25T10:05:29.819Z,56.4
2022-07-25T10:15:42.627Z,54.9
2022-07-25T10:20:49.039Z,54.8
2022-07-25T10:25:55.479Z,53.9
2022-07-25T10:31:26.149Z,53.1
2022-07-25T10:36:10.001Z,52.6
2022-07-25T10:41:16.379Z,53.2
2022-07-25T10:46:22.849Z,52.9
2022-07-25T10:51:35.105Z,53.4
2022-07-25T10:56:35.598Z,52.5
2022-07-25T11:01:42.102Z,52.4
2022-07-25T11:06:51.504Z,49.6
2022-07-25T11:12:01.899Z,49.8
2022-07-25T11:18:16.408Z,49.0
2022-07-25T11:22:00.645Z,48.5
2022-07-25T11:27:17.053Z,48.5
2022-07-25T11:32:27.436Z,47.7
2022-07-25T11:37:29.817Z,47.7
2022-07-25T11:42:50.234Z,48.0
2022-07-25T11:47:42.588Z,47.8
2022-07-25T11:52:38.936Z,47.1
2022-07-25T11:58:39.425Z,47.0
2022-07-25T12:03:01.902Z,46.8
2022-07-25T12:08:08.088Z,47.5
2022-07-25T12:18:20.843Z,47.7
2022-07-25T12:23:27.216Z,46.8
2022-07-25T12:33:29.961Z,45.9
2022-07-25T12:38:49.392Z,46.4
2022-07-25T12:48:49.217Z,47.3
2022-07-25T12:54:08.928Z,47.2
2022-07-25T12:59:01.936Z,47.9
2022-07-25T13:04:08.317Z,49.1
2022-07-25T13:09:24.717Z,49.6
2022-07-25T13:14:31.112Z,48.8
2022-07-25T13:29:50.329Z,49.8
2022-07-25T13:35:20.439Z,50.7
2022-07-25T13:40:03.209Z,50.9
2022-07-25T13:44:59.579Z,50.9
2022-07-25T13:55:13.097Z,51.3
2022-07-25T14:00:29.494Z,51.7
2022-07-25T14:05:35.879Z,51.8
2022-07-25T14:10:42.257Z,51.8
2022-07-25T14:15:52.648Z,51.8
2022-07-25T14:20:45.029Z,51.7
2022-07-25T14:26:05.434Z,52.3
2022-07-25T14:31:31.982Z,52.6
2022-07-25T14:36:04.212Z,52.4
2022-07-25T14:46:27.681Z,52.7
2022-07-25T14:51:58.067Z,53.0
2022-07-25T14:56:40.411Z,52.9
2022-07-25T15:01:36.877Z,53.1
2022-07-25T15:06:57.162Z,55.0
2022-07-25T15:17:06.558Z,55.4
2022-07-25T15:23:06.024Z,56.1
2022-07-25T15:27:20.350Z,56.0
2022-07-25T15:40:32.203Z,57.0
2022-07-25T15:45:39.580Z,56.4
2022-07-25T15:50:45.974Z,56.8
2022-07-25T15:55:55.945Z,56.8
2022-07-25T16:01:22.470Z,57.1
2022-07-25T16:06:08.691Z,57.0
2022-07-25T16:11:15.087Z,57.3
2022-07-25T16:16:45.636Z,57.3
2022-07-25T16:21:47.941Z,57.3
2022-07-25T16:26:34.278Z,57.6
2022-07-25T16:31:54.767Z,57.9
2022-07-25T16:36:46.197Z,57.9
2022-07-25T16:41:53.558Z,57.7
2022-07-25T16:57:16.716Z,58.3
2022-07-25T17:07:25.793Z,58.2
2022-07-25T17:12:22.255Z,58.3
2022-07-25T17:17:38.650Z,58.3
2022-07-25T17:23:19.132Z,58.5
2022-07-25T17:28:26.531Z,58.6
2022-07-25T17:33:36.935Z,58.5
2022-07-25T17:38:39.297Z,58.5
2022-07-25T17:43:49.701Z,58.1
2022-07-25T17:48:56.215Z,57.8
2022-07-25T17:54:00.044Z,57.5
2022-07-25T17:59:06.429Z,57.5
2022-07-25T18:04:12.885Z,57.6
2022-07-25T18:09:43.337Z,57.7
2022-07-25T18:14:25.696Z,57.6
2022-07-25T18:19:36.097Z,57.7
2022-07-25T18:24:42.446Z,57.7
2022-07-25T18:29:44.902Z,57.9
2022-07-25T18:34:51.409Z,57.8
2022-07-25T18:39:57.829Z,57.8
2022-07-25T18:46:04.454Z,58.2
2022-07-25T18:49:59.601Z,57.9
2022-07-25T18:55:16.969Z,57.8
2022-07-25T19:00:27.372Z,58.0
2022-07-25T19:05:29.777Z,58.1
2022-07-25T19:10:26.098Z,58.0
2022-07-25T19:15:42.559Z,58.3
2022-07-25T19:20:48.905Z,58.5
2022-07-25T19:25:59.311Z,58.7
2022-07-25T19:30:51.725Z,58.8
2022-07-25T19:35:58.043Z,59.1
2022-07-25T19:41:37.484Z,59.2
2022-07-25T19:46:23.961Z,59.4
2022-07-25T19:51:20.943Z,59.6
2022-07-25T19:56:36.365Z,59.7
2022-07-25T20:01:43.886Z,59.7
2022-07-25T20:06:50.181Z,59.8
2022-07-25T20:13:01.459Z,60.1
2022-07-25T20:17:03.056Z,60.0
2022-07-25T20:22:37.403Z,60.3
2022-07-25T20:27:15.741Z,60.4
2022-07-25T20:32:22.118Z,60.7
2022-07-25T20:37:30.072Z,60.8
2022-07-25T20:43:00.503Z,60.8
2022-07-25T20:47:42.841Z,61.0
2022-07-25T20:52:39.220Z,61.1
2022-07-25T20:57:58.632Z,61.6
2022-07-25T21:08:57.404Z,61.9
2022-07-25T21:13:44.758Z,61.1
2022-07-25T21:19:43.288Z,61.5
2022-07-25T21:23:57.547Z,61.9
2022-07-25T21:29:04.355Z,62.0
2022-07-25T21:34:11.980Z,62.5
2022-07-25T21:39:22.380Z,62.5
2022-07-25T21:44:24.805Z,63.2
2022-07-25T21:49:40.805Z,63.2
2022-07-25T21:55:29.731Z,63.1
2022-07-25T21:59:44.004Z,63.5
2022-07-25T22:04:50.619Z,64.1
2022-07-25T22:09:57.605Z,64.1
2022-07-25T22:20:16.248Z,64.6
2022-07-25T22:26:15.755Z,64.0
2022-07-25T22:31:46.307Z,63.9
2022-07-25T22:35:36.406Z,64.3
2022-07-25T22:40:42.796Z,64.6
2022-07-25T22:45:53.341Z,64.5
2022-07-25T22:50:59.723Z,65.1
2022-07-25T22:56:06.086Z,65.0
2022-07-25T23:01:12.480Z,65.1
2022-07-25T23:06:14.879Z,65.4
2022-07-25T23:11:21.235Z,66.0
2022-07-25T23:16:51.782Z,65.8
2022-07-25T23:24:26.352Z,65.7
2022-07-25T23:26:40.397Z,65.7
2022-07-25T23:31:46.844Z,65.6
2022-07-25T23:38:17.348Z,65.9
2022-07-25T23:47:05.131Z,67.6
2022-07-25T23:52:11.385Z,67.6
2022-07-25T23:57:22.809Z,68.0
